N308NR KMSN-63C
Flight info
| Callsign | N308NR |
|---|---|
| Flight time | N/A |
| Altitude | VFR |
| Route | |
| Aircraft | C182/L-VGD/C |
Departure
| Time | 2026-04-25 00:43 |
|---|---|
| Airport | Dane County Regional Truax Field (KMSN) |
Arrival
| Time | N/A |
|---|---|
| Airport | 63C |
| Time | Latitude | Longitude | Altitude | Speed | Heading |
|---|---|---|---|---|---|
| 2026-04-25 00:36 | 43.13399 | -89.32873 | 858 ft | 0 kts | 47° |
| 2026-04-25 00:41 | 43.13411 | -89.32856 | 858 ft | 7 kts | 41° |
| 2026-04-25 00:41 | 43.13446 | -89.32813 | 863 ft | 6 kts | 38° |
| 2026-04-25 00:41 | 43.13501 | -89.32810 | 862 ft | 12 kts | 334° |
| 2026-04-25 00:41 | 43.13562 | -89.32764 | 860 ft | 10 kts | 46° |
| 2026-04-25 00:42 | 43.13575 | -89.32745 | 856 ft | 0 kts | 47° |
| 2026-04-25 00:42 | 43.13598 | -89.32716 | 855 ft | 15 kts | 42° |
| 2026-04-25 00:42 | 43.13702 | -89.32743 | 863 ft | 29 kts | 319° |
| 2026-04-25 00:42 | 43.13975 | -89.33096 | 882 ft | 75 kts | 317° |
| 2026-04-25 00:43 | 43.14398 | -89.33674 | 1021 ft | 93 kts | 310° |
| 2026-04-25 00:43 | 43.14554 | -89.34509 | 1276 ft | 104 kts | 254° |
| 2026-04-25 00:43 | 43.14065 | -89.35279 | 1468 ft | 115 kts | 213° |
| 2026-04-25 00:43 | 43.13275 | -89.35600 | 1686 ft | 123 kts | 195° |
| 2026-04-25 00:44 | 43.12418 | -89.35828 | 1898 ft | 126 kts | 194° |
| 2026-04-25 00:44 | 43.11557 | -89.36008 | 1931 ft | 125 kts | 191° |
| 2026-04-25 00:44 | 43.10975 | -89.36127 | 1926 ft | 127 kts | 192° |
| 2026-04-25 00:44 | 43.09862 | -89.36464 | 1982 ft | 121 kts | 202° |
| 2026-04-25 00:45 | 43.09093 | -89.36898 | 2034 ft | 117 kts | 214° |
| 2026-04-25 00:45 | 43.08480 | -89.37578 | 2083 ft | 109 kts | 237° |
| 2026-04-25 00:45 | 43.08049 | -89.38409 | 2113 ft | 106 kts | 244° |
| 2026-04-25 00:45 | 43.07742 | -89.39315 | 2159 ft | 105 kts | 258° |
| 2026-04-25 00:46 | 43.07592 | -89.40295 | 2180 ft | 103 kts | 272° |
| 2026-04-25 00:46 | 43.07609 | -89.41256 | 2204 ft | 100 kts | 284° |
| 2026-04-25 00:46 | 43.06977 | -89.42869 | 2203 ft | 123 kts | 199° |
| 2026-04-25 00:47 | 43.06119 | -89.42821 | 2206 ft | 126 kts | 162° |
| 2026-04-25 00:47 | 43.05424 | -89.42109 | 2216 ft | 125 kts | 121° |
| 2026-04-25 00:47 | 43.04932 | -89.41157 | 2239 ft | 124 kts | 140° |
| 2026-04-25 00:47 | 43.04171 | -89.40816 | 2338 ft | 112 kts | 194° |
| 2026-04-25 00:48 | 43.03728 | -89.41110 | 2357 ft | 106 kts | 233° |
| 2026-04-25 00:48 | 43.03478 | -89.41987 | 2347 ft | 100 kts | 267° |
| 2026-04-25 00:48 | 43.03477 | -89.42898 | 2382 ft | 94 kts | 288° |
| 2026-04-25 00:48 | 43.03516 | -89.44137 | 2214 ft | 108 kts | 277° |
| 2026-04-25 00:49 | 43.03610 | -89.44846 | 2122 ft | 110 kts | 291° |
| 2026-04-25 00:49 | 43.03942 | -89.45731 | 2157 ft | 105 kts | 308° |
| 2026-04-25 00:49 | 43.04370 | -89.46521 | 2144 ft | 104 kts | 311° |
| 2026-04-25 00:49 | 43.04824 | -89.47288 | 2120 ft | 100 kts | 309° |
| 2026-04-25 00:50 | 43.05185 | -89.48058 | 2142 ft | 93 kts | 301° |
| 2026-04-25 00:50 | 43.05525 | -89.48835 | 2015 ft | 100 kts | 303° |
| 2026-04-25 00:50 | 43.05893 | -89.49631 | 2048 ft | 95 kts | 302° |
| 2026-04-25 00:50 | 43.06181 | -89.50432 | 2060 ft | 94 kts | 291° |
| 2026-04-25 00:51 | 43.06384 | -89.51282 | 2074 ft | 91 kts | 291° |
| 2026-04-25 00:51 | 43.06619 | -89.52087 | 2239 ft | 96 kts | 295° |
| 2026-04-25 00:51 | 43.06885 | -89.52963 | 2418 ft | 104 kts | 296° |
| 2026-04-25 00:51 | 43.07161 | -89.53895 | 2613 ft | 108 kts | 296° |
| 2026-04-25 00:52 | 43.07476 | -89.54886 | 2736 ft | 116 kts | 298° |
| 2026-04-25 00:52 | 43.07837 | -89.55939 | 2776 ft | 128 kts | 299° |
| 2026-04-25 00:52 | 43.08231 | -89.57044 | 2856 ft | 132 kts | 299° |
| 2026-04-25 00:52 | 43.08647 | -89.58178 | 2914 ft | 136 kts | 301° |
| 2026-04-25 00:53 | 43.09110 | -89.59303 | 3006 ft | 133 kts | 303° |
| 2026-04-25 00:53 | 43.09534 | -89.60390 | 2933 ft | 128 kts | 301° |
| 2026-04-25 00:53 | 43.09937 | -89.61465 | 2746 ft | 124 kts | 299° |
| 2026-04-25 00:53 | 43.10312 | -89.62481 | 2430 ft | 118 kts | 298° |
| 2026-04-25 00:54 | 43.10652 | -89.63475 | 2212 ft | 111 kts | 295° |
| 2026-04-25 00:54 | 43.10961 | -89.64406 | 1968 ft | 106 kts | 297° |
| 2026-04-25 00:54 | 43.11164 | -89.65382 | 1678 ft | 115 kts | 274° |
| 2026-04-25 00:54 | 43.10829 | -89.66363 | 1563 ft | 121 kts | 227° |
| 2026-04-25 00:55 | 43.10066 | -89.66429 | 1525 ft | 117 kts | 124° |
| 2026-04-25 00:55 | 43.09942 | -89.65369 | 1496 ft | 117 kts | 82° |
| 2026-04-25 00:55 | 43.10423 | -89.64665 | 1466 ft | 112 kts | 355° |
| 2026-04-25 00:55 | 43.10865 | -89.65433 | 1546 ft | 117 kts | 275° |
| 2026-04-25 00:56 | 43.10416 | -89.66237 | 1647 ft | 123 kts | 169° |
| 2026-04-25 00:56 | 43.10007 | -89.65259 | 1674 ft | 131 kts | 97° |
| 2026-04-25 00:56 | 43.09831 | -89.64058 | 1902 ft | 128 kts | 98° |
| 2026-04-25 00:56 | 43.09640 | -89.62864 | 2118 ft | 131 kts | 100° |
| 2026-04-25 00:57 | 43.09425 | -89.61640 | 2322 ft | 135 kts | 100° |
| 2026-04-25 00:57 | 43.09209 | -89.60359 | 2481 ft | 139 kts | 97° |
| 2026-04-25 00:57 | 43.09001 | -89.59048 | 2616 ft | 142 kts | 99° |
| 2026-04-25 00:57 | 43.08804 | -89.57718 | 2711 ft | 146 kts | 99° |
| 2026-04-25 00:58 | 43.08578 | -89.56340 | 2804 ft | 143 kts | 99° |
| 2026-04-25 00:58 | 43.08322 | -89.55061 | 2858 ft | 138 kts | 103° |
| 2026-04-25 00:58 | 43.08039 | -89.53817 | 2847 ft | 139 kts | 105° |
| 2026-04-25 00:58 | 43.07703 | -89.52569 | 2831 ft | 142 kts | 109° |
| 2026-04-25 00:59 | 43.07320 | -89.51308 | 2834 ft | 140 kts | 109° |
| 2026-04-25 00:59 | 43.06954 | -89.50086 | 2839 ft | 141 kts | 109° |
| 2026-04-25 00:59 | 43.06585 | -89.48825 | 2779 ft | 144 kts | 108° |
| 2026-04-25 00:59 | 43.06240 | -89.47504 | 2646 ft | 148 kts | 101° |
| 2026-04-25 01:00 | 43.06149 | -89.46182 | 2651 ft | 136 kts | 81° |
| 2026-04-25 01:00 | 43.06305 | -89.44927 | 2620 ft | 134 kts | 72° |
| 2026-04-25 01:00 | 43.06517 | -89.43708 | 2614 ft | 129 kts | 68° |
| 2026-04-25 01:00 | 43.06782 | -89.42557 | 2619 ft | 124 kts | 63° |
| 2026-04-25 01:01 | 43.07099 | -89.41478 | 2644 ft | 122 kts | 59° |
| 2026-04-25 01:01 | 43.07453 | -89.40441 | 2634 ft | 118 kts | 56° |
| 2026-04-25 01:01 | 43.07842 | -89.39459 | 2557 ft | 119 kts | 53° |
| 2026-04-25 01:01 | 43.08250 | -89.38495 | 2543 ft | 115 kts | 53° |
| 2026-04-25 01:02 | 43.08655 | -89.37558 | 2488 ft | 114 kts | 52° |
| 2026-04-25 01:02 | 43.09020 | -89.36598 | 2442 ft | 113 kts | 58° |
| 2026-04-25 01:02 | 43.09332 | -89.35632 | 2236 ft | 112 kts | 59° |
| 2026-04-25 01:02 | 43.09660 | -89.34696 | 2002 ft | 102 kts | 46° |
| 2026-04-25 01:03 | 43.10227 | -89.34316 | 1672 ft | 94 kts | 356° |
| 2026-04-25 01:03 | 43.10832 | -89.34287 | 1512 ft | 77 kts | 358° |
| 2026-04-25 01:03 | 43.11372 | -89.34267 | 1323 ft | 79 kts | 2° |
| 2026-04-25 01:03 | 43.11912 | -89.34237 | 1120 ft | 76 kts | 1° |
| 2026-04-25 01:04 | 43.12427 | -89.34215 | 951 ft | 73 kts | 2° |
| 2026-04-25 01:04 | 43.12898 | -89.34188 | 869 ft | 59 kts | 2° |
| 2026-04-25 01:04 | 43.13140 | -89.34185 | 865 ft | 23 kts | 2° |
| 2026-04-25 01:04 | 43.13255 | -89.34181 | 865 ft | 11 kts | 1° |
| 2026-04-25 01:05 | 43.13334 | -89.34181 | 865 ft | 14 kts | 352° |
| 2026-04-25 01:05 | 43.13426 | -89.34292 | 862 ft | 23 kts | 296° |
| 2026-04-25 01:05 | 43.13341 | -89.34389 | 861 ft | 16 kts | 193° |
| 2026-04-25 01:05 | 43.13247 | -89.34410 | 857 ft | 11 kts | 187° |
| 2026-04-25 01:06 | 43.13164 | -89.34425 | 868 ft | 13 kts | 188° |
| 2026-04-25 01:06 | 43.13056 | -89.34442 | 868 ft | 19 kts | 187° |
| 2026-04-25 01:06 | 43.12912 | -89.34451 | 868 ft | 20 kts | 183° |
| 2026-04-25 01:06 | 43.12779 | -89.34461 | 869 ft | 20 kts | 181° |
| 2026-04-25 01:07 | 43.12658 | -89.34464 | 855 ft | 18 kts | 181° |
| 2026-04-25 01:07 | 43.12543 | -89.34513 | 863 ft | 15 kts | 239° |
| 2026-04-25 01:07 | 43.12518 | -89.34516 | 863 ft | 0 kts | 118° |